Time;durP1;ratioP1;P1;durP2;ratioP2;P2;SDS_P1;SDS_P2;PMS_P1;PMS_P2;Temp;Humidity;BMP_temperature;BMP_pressure;BME280_temperature;BME280_humidity;BME280_pressure;Samples;Min_cycle;Max_cycle;Signal;HPM_P1;HPM_P2
2023/04/05 00:02:13;;;;;;;1.08;0.52;;;19.40;1.00;;;;;;5013251;28;20089;-35
2023/04/05 00:04:49;;;;;;;1.55;0.68;;;19.40;1.00;;;;;;5013127;28;20046;-34
2023/04/05 00:07:16;;;;;;;1.38;0.68;;;19.40;1.00;;;;;;4995566;28;20514;-35
2023/04/05 00:09:43;;;;;;;3.53;0.82;;;19.30;1.00;;;;;;5013407;28;20080;-34
2023/04/05 00:12:10;;;;;;;1.77;0.73;;;19.30;1.00;;;;;;5013120;28;20128;-35
2023/04/05 00:14:37;;;;;;;1.92;0.77;;;19.30;1.00;;;;;;5012836;28;20084;-35
2023/04/05 00:17:05;;;;;;;2.92;0.75;;;19.20;1.00;;;;;;5013189;28;20041;-35
2023/04/05 00:19:32;;;;;;;2.95;0.57;;;19.20;1.00;;;;;;5013081;28;20042;-34
2023/04/05 00:21:59;;;;;;;4.03;1.20;;;19.20;1.00;;;;;;5013106;28;20548;-35
2023/04/05 00:24:28;;;;;;;2.10;1.02;;;19.10;1.00;;;;;;5012429;28;20042;-34
2023/04/05 00:26:55;;;;;;;2.90;0.60;;;19.10;1.00;;;;;;5012925;28;20038;-34
2023/04/05 00:29:22;;;;;;;2.15;1.25;;;19.10;1.00;;;;;;4995101;28;20073;-34
2023/04/05 00:31:49;;;;;;;2.30;0.73;;;19.00;1.00;;;;;;5012898;28;20561;-34
2023/04/05 00:34:16;;;;;;;1.40;0.65;;;19.00;1.00;;;;;;5012072;28;20416;-34
2023/04/05 00:36:43;;;;;;;2.67;0.60;;;19.00;1.00;;;;;;4995383;28;20513;-34
2023/04/05 00:39:09;;;;;;;1.80;0.90;;;18.90;1.00;;;;;;4995206;28;20053;-35
2023/04/05 00:41:36;;;;;;;3.72;0.60;;;18.90;1.00;;;;;;4995425;28;20077;-34
2023/04/05 00:44:04;;;;;;;2.20;0.57;;;18.90;1.00;;;;;;5011983;28;20062;-34
2023/04/05 00:46:35;;;;;;;2.10;0.85;;;18.80;1.00;;;;;;4995105;28;20096;-35
2023/04/05 00:49:03;;;;;;;1.00;0.70;;;18.80;1.00;;;;;;5012699;28;20564;-34
2023/04/05 00:51:32;;;;;;;1.70;0.93;;;18.80;1.00;;;;;;4995290;28;20104;-34
2023/04/05 00:54:00;;;;;;;1.73;0.95;;;18.80;1.00;;;;;;4994228;28;20049;-34
2023/04/05 00:56:27;;;;;;;1.20;0.60;;;18.70;1.00;;;;;;5012625;28;20048;-35
2023/04/05 00:58:54;;;;;;;1.80;0.80;;;18.70;1.00;;;;;;5012460;28;20080;-34
2023/04/05 01:01:25;;;;;;;2.25;1.00;;;18.70;1.00;;;;;;4994730;28;20053;-34
2023/04/05 01:03:58;;;;;;;3.22;0.95;;;18.70;1.00;;;;;;5011852;28;20046;-34
2023/04/05 01:06:47;;;;;;;3.90;1.05;;;18.60;1.00;;;;;;4994932;28;20046;-35
2023/04/05 01:09:32;;;;;;;1.27;0.75;;;18.60;1.00;;;;;;4994736;28;20053;-34
2023/04/05 01:12:05;;;;;;;3.80;0.90;;;18.60;1.00;;;;;;4994746;28;20054;-34
2023/04/05 01:14:32;;;;;;;2.10;1.15;;;18.50;1.00;;;;;;5011708;28;20073;-34
2023/04/05 01:16:58;;;;;;;7.60;1.02;;;18.50;1.00;;;;;;4994609;28;20144;-34
2023/04/05 01:19:28;;;;;;;1.65;0.70;;;18.50;1.00;;;;;;5012326;28;20486;-34
2023/04/05 01:22:25;;;;;;;1.80;0.90;;;18.50;1.00;;;;;;4994838;28;20042;-34
2023/04/05 01:25:01;;;;;;;2.45;1.08;;;18.50;1.00;;;;;;4994233;28;20041;-35
2023/04/05 01:27:37;;;;;;;2.65;0.90;;;18.40;1.00;;;;;;4994440;28;20042;-35
2023/04/05 01:30:23;;;;;;;2.45;0.82;;;18.40;1.00;;;;;;4994688;28;20050;-35
2023/04/05 01:33:24;;;;;;;2.90;1.20;;;18.40;1.00;;;;;;5011321;28;20038;-35
2023/04/05 01:35:58;;;;;;;2.20;1.35;;;18.30;1.00;;;;;;5012276;28;20100;-34
2023/04/05 01:38:27;;;;;;;2.72;1.25;;;18.40;1.00;;;;;;5012131;28;20092;-35
2023/04/05 01:40:54;;;;;;;2.25;0.65;;;18.30;1.00;;;;;;4994340;28;20052;-34
2023/04/05 01:43:21;;;;;;;1.80;1.00;;;18.30;1.00;;;;;;5014515;28;20037;-34
2023/04/05 01:45:48;;;;;;;2.90;1.33;;;18.20;1.00;;;;;;4998500;28;20472;-34
2023/04/05 01:48:15;;;;;;;3.60;0.93;;;18.20;1.00;;;;;;5015920;28;20490;-34
2023/04/05 01:50:42;;;;;;;2.13;0.93;;;18.20;1.00;;;;;;5015973;28;20046;-35
2023/04/05 01:53:09;;;;;;;2.40;1.10;;;18.20;1.00;;;;;;5015124;28;20073;-34
2023/04/05 01:55:36;;;;;;;1.92;0.90;;;18.20;1.00;;;;;;4998180;28;20057;-34
2023/04/05 01:58:03;;;;;;;2.33;0.70;;;18.10;1.00;;;;;;5015834;28;20387;-34
2023/04/05 02:00:31;;;;;;;2.40;1.08;;;18.10;1.00;;;;;;4997885;28;20085;-35
2023/04/05 02:02:58;;;;;;;1.33;0.60;;;18.10;1.00;;;;;;4997353;28;20085;-34
2023/04/05 02:05:25;;;;;;;2.92;0.70;;;18.10;1.00;;;;;;5016284;28;20038;-34
2023/04/05 02:07:52;;;;;;;2.40;1.02;;;18.10;1.00;;;;;;5015520;28;20041;-34
2023/04/05 02:10:19;;;;;;;1.73;0.88;;;18.00;1.00;;;;;;5015667;28;20552;-34
2023/04/05 02:12:46;;;;;;;2.67;1.35;;;18.00;1.00;;;;;;4997227;28;20116;-34
2023/04/05 02:15:13;;;;;;;2.83;1.20;;;18.00;1.00;;;;;;5015581;28;20068;-35
2023/04/05 02:17:44;;;;;;;2.05;1.10;;;18.00;1.00;;;;;;4997830;28;20046;-34
2023/04/05 02:20:13;;;;;;;1.58;1.10;;;18.00;1.00;;;;;;4997910;28;20050;-34
2023/04/05 02:22:43;;;;;;;2.72;0.82;;;18.00;1.00;;;;;;5014564;28;20432;-34
2023/04/05 02:25:11;;;;;;;3.05;1.25;;;17.90;1.00;;;;;;4997858;28;20041;-35
2023/04/05 02:27:38;;;;;;;3.85;1.20;;;17.90;1.00;;;;;;4997622;28;20493;-34
2023/04/05 02:30:06;;;;;;;2.28;1.10;;;17.90;1.00;;;;;;4997815;28;20054;-34
2023/04/05 02:32:33;;;;;;;2.60;1.35;;;17.80;1.00;;;;;;5014951;28;20421;-34
2023/04/05 02:35:01;;;;;;;4.28;1.00;;;17.80;1.00;;;;;;5014696;28;20120;-34
2023/04/05 02:37:28;;;;;;;3.67;1.63;;;17.80;1.00;;;;;;4997536;28;20042;-34
2023/04/05 02:39:55;;;;;;;2.38;0.82;;;17.80;1.00;;;;;;4997443;28;20069;-34
2023/04/05 02:42:22;;;;;;;3.30;1.00;;;17.80;1.00;;;;;;4997055;28;20052;-34
2023/04/05 02:44:51;;;;;;;2.47;1.15;;;17.80;1.00;;;;;;5014742;28;20121;-34
2023/04/05 02:47:21;;;;;;;3.90;1.38;;;17.70;1.00;;;;;;4997232;28;20057;-34
2023/04/05 02:49:57;;;;;;;2.38;1.50;;;17.70;1.00;;;;;;4997334;28;20057;-34
2023/04/05 02:52:27;;;;;;;3.10;1.58;;;17.70;1.00;;;;;;4996517;28;20049;-34
2023/04/05 02:54:54;;;;;;;3.10;1.60;;;17.70;1.00;;;;;;4997053;28;20046;-34
2023/04/05 02:57:25;;;;;;;2.13;1.00;;;17.70;1.00;;;;;;5014674;28;20589;-34
2023/04/05 02:59:59;;;;;;;1.92;1.38;;;17.60;1.00;;;;;;4996897;28;20513;-34
2023/04/05 03:02:28;;;;;;;3.17;1.30;;;17.60;1.00;;;;;;4996573;28;20513;-34
2023/04/05 03:04:55;;;;;;;2.63;1.30;;;17.60;1.00;;;;;;5014387;28;20042;-34
2023/04/05 03:07:24;;;;;;;3.50;1.10;;;17.60;1.00;;;;;;4996834;28;20151;-34
2023/04/05 03:09:52;;;;;;;2.65;1.20;;;17.60;1.00;;;;;;4996948;28;20046;-34
2023/04/05 03:12:20;;;;;;;3.13;1.40;;;17.50;1.00;;;;;;4996597;28;20509;-34
2023/04/05 03:14:46;;;;;;;3.47;1.02;;;17.50;1.00;;;;;;4996302;28;20057;-34
2023/04/05 03:17:16;;;;;;;3.15;1.23;;;17.50;1.00;;;;;;4996823;28;20074;-34
2023/04/05 03:19:50;;;;;;;4.22;1.65;;;17.50;1.00;;;;;;4996683;28;20049;-34
2023/04/05 03:22:21;;;;;;;1.95;1.23;;;17.50;1.00;;;;;;4996521;28;20050;-34
2023/04/05 03:24:49;;;;;;;2.67;1.30;;;17.50;1.00;;;;;;4996384;28;20050;-34
2023/04/05 03:27:18;;;;;;;2.38;1.20;;;17.40;1.00;;;;;;4996385;28;20498;-34
2023/04/05 03:29:58;;;;;;;2.90;1.60;;;17.40;1.00;;;;;;5014260;28;20100;-34
2023/04/05 03:32:25;;;;;;;2.25;1.10;;;17.40;1.00;;;;;;5013790;28;20104;-34
2023/04/05 03:35:00;;;;;;;2.17;1.10;;;17.40;1.00;;;;;;4996598;28;20452;-34
2023/04/05 03:37:28;;;;;;;2.65;1.27;;;17.30;1.00;;;;;;4996332;28;20050;-34
2023/04/05 03:40:01;;;;;;;2.28;1.13;;;17.30;1.00;;;;;;4996296;28;20390;-34
2023/04/05 03:42:28;;;;;;;2.15;1.20;;;17.30;1.00;;;;;;4996092;28;20053;-34
2023/04/05 03:44:55;;;;;;;2.53;0.80;;;17.30;1.00;;;;;;4995913;28;20050;-34
2023/04/05 03:47:22;;;;;;;2.53;0.85;;;17.30;1.00;;;;;;4996233;28;20037;-34
2023/04/05 03:49:51;;;;;;;1.75;1.05;;;17.30;1.00;;;;;;4996210;28;20449;-34
2023/04/05 03:52:17;;;;;;;2.35;1.20;;;17.20;1.00;;;;;;4995635;28;20050;-34
2023/04/05 03:54:44;;;;;;;3.42;1.20;;;17.20;1.00;;;;;;5013437;28;20044;-34
2023/04/05 03:57:15;;;;;;;2.00;0.90;;;17.20;1.00;;;;;;4996045;28;20045;-34
2023/04/05 03:59:43;;;;;;;2.85;1.42;;;17.20;1.00;;;;;;4995860;28;20053;-34
2023/04/05 04:02:11;;;;;;;3.10;1.63;;;17.20;1.00;;;;;;4995792;28;20046;-34
2023/04/05 04:04:38;;;;;;;4.55;1.23;;;17.10;1.00;;;;;;4994454;28;20493;-34
2023/04/05 04:07:05;;;;;;;4.55;1.88;;;17.10;1.00;;;;;;5030250;23;20045;-37
2023/04/05 04:09:32;;;;;;;2.80;1.38;;;17.20;1.00;;;;;;5035012;28;20125;-37
2023/04/05 04:12:05;;;;;;;2.58;1.08;;;17.10;1.00;;;;;;5035044;28;20052;-34
2023/04/05 04:14:35;;;;;;;1.88;1.30;;;17.10;1.00;;;;;;5035142;28;20067;-35
2023/04/05 04:17:31;;;;;;;3.58;1.40;;;17.10;1.00;;;;;;5052344;28;20128;-35
2023/04/05 04:20:18;;;;;;;2.95;1.20;;;17.10;1.00;;;;;;5042071;28;20045;-35
2023/04/05 04:22:57;;;;;;;3.85;1.08;;;17.10;1.00;;;;;;5034436;28;20156;-35
2023/04/05 04:25:53;;;;;;;12.25;1.67;;;17.00;1.00;;;;;;5024051;28;20143;-37
2023/04/05 04:28:42;;;;;;;12.75;3.13;;;17.00;1.00;;;;;;5041737;28;20576;-33
2023/04/05 04:31:22;;;;;;;15.95;3.40;;;17.00;1.00;;;;;;5034762;28;20500;-35
2023/04/05 04:34:05;;;;;;;5.45;2.33;;;16.90;1.00;;;;;;5033996;28;20504;-33
2023/04/05 04:37:00;;;;;;;8.02;3.30;;;16.90;1.00;;;;;;5034697;28;20052;-38
2023/04/05 04:39:53;;;;;;;6.20;2.15;;;16.80;1.00;;;;;;5049200;28;20052;-34
2023/04/05 04:42:49;;;;;;;4.60;1.80;;;16.80;1.00;;;;;;4997332;28;20529;-33
2023/04/05 04:45:50;;;;;;;4.43;2.22;;;16.80;1.00;;;;;;5020579;28;20404;-33
2023/04/05 04:48:20;;;;;;;7.65;2.03;;;16.70;1.00;;;;;;5034438;28;20501;-36
2023/04/05 04:51:09;;;;;;;5.13;2.15;;;16.80;1.00;;;;;;5052464;28;20119;-32
2023/04/05 04:53:36;;;;;;;8.32;2.33;;;16.70;1.00;;;;;;5051543;28;20049;-32
2023/04/05 04:56:07;;;;;;;5.28;2.45;;;16.70;1.00;;;;;;5044570;28;20076;-34
2023/04/05 04:58:34;;;;;;;6.28;2.00;;;16.70;1.00;;;;;;5032595;28;20427;-31
2023/04/05 05:01:11;;;;;;;4.32;1.70;;;16.70;1.00;;;;;;5014523;28;20049;-33
2023/04/05 05:03:38;;;;;;;5.03;2.20;;;16.60;1.00;;;;;;5049661;28;20120;-36
2023/04/05 05:06:05;;;;;;;5.15;2.15;;;16.60;1.00;;;;;;5052214;28;20115;-37
2023/04/05 05:08:33;;;;;;;8.60;2.60;;;16.60;1.00;;;;;;5033874;28;20136;-32
2023/04/05 05:11:00;;;;;;;6.05;1.90;;;16.60;1.00;;;;;;5052016;28;20045;-33
2023/04/05 05:13:27;;;;;;;6.28;1.83;;;16.60;1.00;;;;;;5050691;28;20064;-33
2023/04/05 05:15:55;;;;;;;4.70;1.75;;;16.50;1.00;;;;;;5051862;28;20504;-37
2023/04/05 05:18:24;;;;;;;3.38;1.58;;;16.60;1.00;;;;;;5033818;28;20615;-32
2023/04/05 05:20:51;;;;;;;2.72;1.40;;;16.60;1.00;;;;;;5051847;28;20449;-34
2023/04/05 05:23:20;;;;;;;3.17;1.40;;;16.50;1.00;;;;;;5051131;28;20045;-37
2023/04/05 05:25:47;;;;;;;5.72;1.85;;;16.60;1.00;;;;;;5051706;28;20124;-40
2023/04/05 05:28:15;;;;;;;4.38;1.45;;;16.50;1.00;;;;;;5033731;28;20111;-37
2023/04/05 05:30:42;;;;;;;3.92;1.67;;;16.60;1.00;;;;;;5051785;28;20068;-36
2023/04/05 05:33:09;;;;;;;6.82;2.00;;;16.60;1.00;;;;;;5051179;28;20056;-35
2023/04/05 05:35:36;;;;;;;3.53;1.67;;;16.70;1.00;;;;;;5051783;28;20053;-35
2023/04/05 05:38:03;;;;;;;2.15;1.23;;;16.70;1.00;;;;;;5051597;28;20055;-32
2023/04/05 05:40:33;;;;;;;5.20;1.08;;;16.80;1.00;;;;;;5051513;28;20041;-34
2023/04/05 05:42:59;;;;;;;4.63;1.17;;;16.90;1.00;;;;;;5050984;28;20052;-35
2023/04/05 05:45:26;;;;;;;3.88;1.23;;;17.00;1.00;;;;;;5051619;28;20033;-34
2023/04/05 05:47:55;;;;;;;2.55;1.33;;;17.00;1.00;;;;;;5051597;28;20451;-35
2023/04/05 05:50:21;;;;;;;4.30;1.85;;;17.10;1.00;;;;;;5051668;28;20037;-33
2023/04/05 05:52:48;;;;;;;4.72;1.40;;;17.20;1.00;;;;;;5050651;28;20076;-35
2023/04/05 05:55:15;;;;;;;2.67;1.60;;;17.30;1.00;;;;;;5051522;28;20045;-34
2023/04/05 05:57:42;;;;;;;2.65;1.02;;;17.30;1.00;;;;;;5051504;28;20044;-33
2023/04/05 06:00:09;;;;;;;2.50;1.05;;;17.40;1.00;;;;;;5033756;28;20041;-38
2023/04/05 06:02:40;;;;;;;2.65;1.17;;;17.40;1.00;;;;;;5050544;28;20132;-40
2023/04/05 06:05:07;;;;;;;2.45;1.02;;;17.50;1.00;;;;;;5051507;28;20045;-36
2023/04/05 06:07:35;;;;;;;8.25;1.48;;;17.50;1.00;;;;;;5051148;28;20049;-37
2023/04/05 06:10:03;;;;;;;5.10;2.33;;;17.50;1.00;;;;;;5051559;28;20116;-36
2023/04/05 06:12:31;;;;;;;4.70;1.23;;;17.60;1.00;;;;;;5050981;28;20535;-38
2023/04/05 06:14:58;;;;;;;4.03;1.35;;;17.60;1.00;;;;;;5051122;28;20037;-39
2023/04/05 06:17:25;;;;;;;2.60;1.02;;;17.70;1.00;;;;;;5051223;28;20045;-38
2023/04/05 06:19:52;;;;;;;3.17;1.33;;;17.70;1.00;;;;;;5051143;28;20045;-33
2023/04/05 06:22:19;;;;;;;2.63;1.27;;;17.70;1.00;;;;;;5050811;28;20049;-32
2023/04/05 06:24:45;;;;;;;2.65;1.33;;;17.70;1.00;;;;;;5051027;28;20095;-35
2023/04/05 06:27:13;;;;;;;2.55;1.30;;;17.70;1.00;;;;;;5051059;28;20127;-34
2023/04/05 06:29:40;;;;;;;1.95;1.33;;;17.70;1.00;;;;;;5054642;28;20400;-36
2023/04/05 06:32:07;;;;;;;2.83;1.38;;;17.70;1.00;;;;;;5054706;28;20048;-35
2023/04/05 06:34:33;;;;;;;3.90;1.40;;;17.80;1.00;;;;;;5036413;28;20464;-38
2023/04/05 06:37:01;;;;;;;1.95;1.20;;;17.80;1.00;;;;;;5054949;28;20045;-34
2023/04/05 06:39:28;;;;;;;2.83;1.45;;;17.80;1.00;;;;;;5054719;28;20045;-38
2023/04/05 06:41:55;;;;;;;4.28;1.30;;;17.80;1.00;;;;;;5054647;28;20559;-40
2023/04/05 06:44:26;;;;;;;3.15;1.35;;;17.80;1.00;;;;;;5036168;28;20045;-32
2023/04/05 06:46:53;;;;;;;1.98;1.10;;;17.80;1.00;;;;;;5054484;28;20486;-37
2023/04/05 06:49:20;;;;;;;2.42;1.08;;;17.80;1.00;;;;;;5054554;28;20488;-37
2023/04/05 06:51:46;;;;;;;2.03;1.23;;;17.80;1.00;;;;;;5054478;28;20041;-36
2023/04/05 06:54:13;;;;;;;2.33;1.55;;;17.80;1.00;;;;;;5053807;28;20041;-34
2023/04/05 06:56:40;;;;;;;4.05;1.42;;;17.80;1.00;;;;;;5054358;28;20049;-32
2023/04/05 06:59:07;;;;;;;2.70;1.35;;;17.80;1.00;;;;;;5036985;28;20170;-34
2023/04/05 07:01:34;;;;;;;2.10;1.20;;;17.80;1.00;;;;;;5054390;28;20037;-33
2023/04/05 07:04:01;;;;;;;2.95;1.30;;;17.80;1.00;;;;;;5053539;28;20116;-35
2023/04/05 07:06:28;;;;;;;3.78;1.50;;;17.80;1.00;;;;;;5054207;28;20041;-32
2023/04/05 07:08:55;;;;;;;2.58;1.55;;;17.80;1.00;;;;;;5053973;28;20040;-31
2023/04/05 07:11:22;;;;;;;2.65;1.55;;;17.70;1.00;;;;;;5054153;28;20079;-35
2023/04/05 07:13:48;;;;;;;3.40;1.55;;;17.70;1.00;;;;;;5053349;28;20444;-34
2023/04/05 07:16:18;;;;;;;2.42;1.30;;;17.70;1.00;;;;;;5053885;28;20413;-36
2023/04/05 07:18:45;;;;;;;2.90;1.20;;;17.70;1.00;;;;;;5053966;28;20041;-36
2023/04/05 07:21:11;;;;;;;2.85;1.38;;;17.70;1.00;;;;;;5054016;28;20507;-33
2023/04/05 07:23:38;;;;;;;2.72;1.20;;;17.70;1.00;;;;;;5053251;28;20037;-36
2023/04/05 07:26:06;;;;;;;3.70;1.08;;;17.70;1.00;;;;;;5053975;28;20037;-37
2023/04/05 07:28:34;;;;;;;2.33;1.15;;;17.70;1.00;;;;;;5053475;28;20069;-37
2023/04/05 07:31:02;;;;;;;3.72;1.23;;;17.70;1.00;;;;;;5053788;28;20056;-34
2023/04/05 07:33:29;;;;;;;2.25;1.17;;;17.60;1.00;;;;;;5052921;28;20049;-36
2023/04/05 07:35:56;;;;;;;3.72;1.52;;;17.60;1.00;;;;;;5054004;28;20041;-33
2023/04/05 07:38:23;;;;;;;2.53;0.95;;;17.60;1.00;;;;;;5053542;28;20048;-32
2023/04/05 07:40:57;;;;;;;2.63;1.42;;;17.60;1.00;;;;;;5052287;28;20037;-33
2023/04/05 07:43:30;;;;;;;2.58;1.17;;;17.60;1.00;;;;;;5052725;28;20048;-34
2023/04/05 07:46:04;;;;;;;4.22;1.25;;;17.60;1.00;;;;;;5053483;28;20033;-37
2023/04/05 07:48:31;;;;;;;3.42;1.42;;;17.60;1.00;;;;;;5053645;28;20037;-34
2023/04/05 07:51:08;;;;;;;2.03;0.80;;;17.50;1.00;;;;;;5053473;28;20052;-33
2023/04/05 07:53:36;;;;;;;4.18;1.10;;;17.50;1.00;;;;;;5052603;28;20052;-34
2023/04/05 07:56:05;;;;;;;1.88;0.95;;;17.50;1.00;;;;;;5053293;28;20041;-35
2023/04/05 07:58:33;;;;;;;4.45;1.30;;;17.50;1.00;;;;;;5053335;28;20441;-36
2023/04/05 08:01:01;;;;;;;2.08;0.93;;;17.60;1.00;;;;;;5053183;28;20381;-36
2023/04/05 08:03:29;;;;;;;1.98;1.02;;;17.50;1.00;;;;;;5052406;28;20037;-37
2023/04/05 08:05:57;;;;;;;1.50;1.08;;;17.50;1.00;;;;;;5053151;28;20393;-33
2023/04/05 08:08:24;;;;;;;2.13;1.10;;;17.50;1.00;;;;;;5035007;28;20063;-34
2023/04/05 08:10:51;;;;;;;2.35;1.10;;;17.50;1.00;;;;;;5053046;28;20088;-34
2023/04/05 08:13:17;;;;;;;2.63;1.30;;;17.50;1.00;;;;;;5052292;28;20538;-33
2023/04/05 08:15:45;;;;;;;2.90;1.15;;;17.50;1.00;;;;;;5053043;28;20519;-38
2023/04/05 08:18:22;;;;;;;2.42;1.02;;;17.50;1.00;;;;;;5052699;28;20106;-36
2023/04/05 08:20:56;;;;;;;3.85;0.88;;;17.50;1.00;;;;;;5052543;28;20049;-37
2023/04/05 08:23:23;;;;;;;2.33;1.00;;;17.50;1.00;;;;;;5052008;28;20037;-39
2023/04/05 08:25:50;;;;;;;1.40;0.95;;;17.40;1.00;;;;;;5052778;28;20052;-36
2023/04/05 08:28:17;;;;;;;1.48;1.00;;;17.50;1.00;;;;;;5052676;28;20036;-37
2023/04/05 08:30:45;;;;;;;1.85;1.15;;;17.40;1.00;;;;;;5052915;28;20087;-38
2023/04/05 08:33:12;;;;;;;2.67;1.30;;;17.40;1.00;;;;;;5051837;28;20045;-33
2023/04/05 08:35:39;;;;;;;1.92;0.85;;;17.50;1.00;;;;;;5034556;28;20048;-38
2023/04/05 08:38:06;;;;;;;2.08;1.10;;;17.40;1.00;;;;;;5052480;28;20047;-33
2023/04/05 08:40:41;;;;;;;2.22;0.80;;;17.50;1.00;;;;;;5052466;28;20533;-34
2023/04/05 08:43:32;;;;;;;1.75;1.00;;;17.40;1.00;;;;;;5051597;28;20037;-37
2023/04/05 08:46:00;;;;;;;2.30;1.10;;;17.50;1.00;;;;;;5052960;28;20044;-35
2023/04/05 08:48:31;;;;;;;1.77;0.85;;;17.50;1.00;;;;;;5052360;28;20029;-35
2023/04/05 08:50:58;;;;;;;2.55;0.98;;;17.50;1.00;;;;;;5052025;28;20045;-35
2023/04/05 08:53:25;;;;;;;3.22;1.30;;;17.50;1.00;;;;;;5051319;28;20048;-37
2023/04/05 08:55:55;;;;;;;2.38;1.10;;;17.50;1.00;;;;;;5052290;28;20040;-35
2023/04/05 08:58:24;;;;;;;2.65;1.00;;;17.50;1.00;;;;;;5052065;28;20052;-33
2023/04/05 09:00:51;;;;;;;1.60;0.70;;;17.50;1.00;;;;;;5051991;28;20382;-38
2023/04/05 09:03:22;;;;;;;2.15;1.02;;;17.50;1.00;;;;;;5051422;28;20530;-34
2023/04/05 09:05:52;;;;;;;2.72;0.90;;;17.50;1.00;;;;;;5052259;28;20505;-37
2023/04/05 09:08:22;;;;;;;2.47;1.20;;;17.60;1.00;;;;;;5051761;28;20135;-32
2023/04/05 09:10:52;;;;;;;3.38;1.23;;;17.60;1.00;;;;;;5051798;28;20382;-33
2023/04/05 09:13:19;;;;;;;2.35;1.02;;;17.60;1.00;;;;;;5033539;28;20048;-36
2023/04/05 09:15:46;;;;;;;1.65;0.80;;;17.60;1.00;;;;;;5052049;28;20072;-34
2023/04/05 09:18:13;;;;;;;1.27;0.57;;;17.60;1.00;;;;;;5051904;28;20404;-35
2023/04/05 09:21:05;;;;;;;2.50;0.77;;;17.60;1.00;;;;;;5051884;28;20037;-35
2023/04/05 09:23:36;;;;;;;2.25;1.02;;;17.60;1.00;;;;;;5051124;28;20511;-36
2023/04/05 09:26:22;;;;;;;1.23;0.88;;;17.70;1.00;;;;;;5051916;28;20099;-32
2023/04/05 09:28:58;;;;;;;3.08;0.80;;;17.70;1.00;;;;;;5033930;28;20132;-37
2023/04/05 09:31:30;;;;;;;1.83;0.90;;;17.70;1.00;;;;;;5051758;28;20053;-33
2023/04/05 09:33:59;;;;;;;1.52;1.02;;;17.70;1.00;;;;;;5050960;28;20045;-36
2023/04/05 09:36:27;;;;;;;2.30;0.95;;;17.70;1.00;;;;;;5051560;28;20049;-36
2023/04/05 09:39:04;;;;;;;2.72;0.68;;;17.70;1.00;;;;;;5051639;28;20497;-37
2023/04/05 09:41:31;;;;;;;2.13;0.70;;;17.70;1.00;;;;;;5051610;28;20051;-36
2023/04/05 09:43:58;;;;;;;2.40;0.90;;;17.70;1.00;;;;;;5050956;28;20115;-35
2023/04/05 09:46:32;;;;;;;1.05;0.63;;;17.70;1.00;;;;;;5051380;28;20045;-32
2023/04/05 09:49:03;;;;;;;2.15;0.90;;;17.80;1.00;;;;;;5051807;28;20040;-33
2023/04/05 09:51:35;;;;;;;1.25;0.50;;;17.80;1.00;;;;;;5051526;28;20045;-35
2023/04/05 09:54:09;;;;;;;1.60;0.75;;;17.80;1.00;;;;;;5033027;28;20159;-35
2023/04/05 09:56:37;;;;;;;3.10;0.70;;;17.80;1.00;;;;;;5051450;28;20057;-35
2023/04/05 09:59:11;;;;;;;1.67;0.85;;;17.80;1.00;;;;;;5051661;28;20041;-32
2023/04/05 10:01:42;;;;;;;4.18;1.13;;;17.80;1.00;;;;;;5051367;28;20155;-36
2023/04/05 10:04:09;;;;;;;1.70;0.90;;;17.80;1.00;;;;;;5053433;28;20091;-33
2023/04/05 10:06:39;;;;;;;2.08;0.90;;;17.80;1.00;;;;;;5055227;28;20075;-30
2023/04/05 10:09:07;;;;;;;2.10;1.13;;;17.80;1.00;;;;;;5048699;22;20049;-35
2023/04/05 10:11:35;;;;;;;3.35;1.27;;;17.80;1.00;;;;;;5035370;28;20042;-36
2023/04/05 10:14:04;;;;;;;1.83;1.08;;;17.80;1.00;;;;;;5034611;28;20125;-35
2023/04/05 10:17:02;;;;;;;2.17;0.70;;;17.80;1.00;;;;;;5035104;28;20107;-36
2023/04/05 10:19:40;;;;;;;3.72;0.88;;;17.80;1.00;;;;;;5006575;28;20132;-35
2023/04/05 10:22:14;;;;;;;1.20;0.60;;;17.90;1.00;;;;;;5015374;28;20071;-35
2023/04/05 10:24:49;;;;;;;2.15;0.80;;;17.90;1.00;;;;;;5015070;28;20038;-36
2023/04/05 10:27:38;;;;;;;1.65;0.63;;;17.90;1.00;;;;;;5015270;28;20046;-36
2023/04/05 10:30:08;;;;;;;2.63;0.93;;;17.90;1.00;;;;;;5015379;28;20405;-36
2023/04/05 10:33:02;;;;;;;1.83;1.08;;;17.90;1.00;;;;;;5014865;28;20359;-36
2023/04/05 10:35:48;;;;;;;1.00;0.68;;;17.80;1.00;;;;;;5015025;28;20070;-35
2023/04/05 10:38:27;;;;;;;1.55;1.02;;;17.90;1.00;;;;;;5015181;28;20054;-36
2023/04/05 10:41:05;;;;;;;1.08;0.52;;;17.90;1.00;;;;;;5015124;28;20057;-36
2023/04/05 10:43:34;;;;;;;3.25;0.88;;;17.90;1.00;;;;;;5014254;28;20088;-36
2023/04/05 10:46:02;;;;;;;3.05;1.17;;;17.90;1.00;;;;;;5014824;28;20468;-36
2023/04/05 10:48:54;;;;;;;1.40;0.60;;;17.90;1.00;;;;;;5014871;28;20501;-36
2023/04/05 10:51:25;;;;;;;1.83;0.90;;;17.90;1.00;;;;;;5014870;28;20034;-36
2023/04/05 10:53:53;;;;;;;2.80;1.15;;;17.80;1.00;;;;;;5014071;28;20049;-35
2023/04/05 10:56:20;;;;;;;1.92;0.93;;;17.80;1.00;;;;;;5014705;28;20101;-36
2023/04/05 10:58:49;;;;;;;2.35;0.88;;;17.90;1.00;;;;;;5014740;28;20050;-36
2023/04/05 11:01:17;;;;;;;1.75;0.82;;;17.80;1.00;;;;;;5014698;28;20042;-36
2023/04/05 11:03:47;;;;;;;2.85;1.15;;;17.80;1.00;;;;;;5013827;28;20520;-35
2023/04/05 11:06:28;;;;;;;4.63;1.15;;;17.80;1.00;;;;;;5014837;28;20038;-35
2023/04/05 11:09:07;;;;;;;3.22;1.77;;;17.90;1.00;;;;;;5014407;28;20046;-36
2023/04/05 11:11:39;;;;;;;1.85;0.77;;;17.90;1.00;;;;;;5014370;28;20041;-35
2023/04/05 11:14:34;;;;;;;1.23;0.68;;;17.80;1.00;;;;;;5013441;28;20457;-35
2023/04/05 11:17:01;;;;;;;2.38;0.60;;;17.80;1.00;;;;;;5014319;28;20060;-35
2023/04/05 11:19:46;;;;;;;1.38;0.60;;;17.80;1.00;;;;;;5014301;28;20045;-35
2023/04/05 11:22:27;;;;;;;1.67;0.90;;;17.80;1.00;;;;;;5013814;28;20038;-36
2023/04/05 11:24:57;;;;;;;1.48;0.65;;;17.80;1.00;;;;;;5013844;28;20046;-35
2023/04/05 11:27:28;;;;;;;2.15;1.00;;;17.80;1.00;;;;;;5014286;28;20100;-36
2023/04/05 11:29:56;;;;;;;1.25;0.70;;;17.80;1.00;;;;;;5014021;28;20046;-35
2023/04/05 11:32:36;;;;;;;2.10;0.82;;;17.80;1.00;;;;;;5013624;28;20076;-35
2023/04/05 11:35:12;;;;;;;2.58;0.65;;;17.80;1.00;;;;;;5014024;28;20045;-35
2023/04/05 11:38:00;;;;;;;3.35;1.00;;;17.80;1.00;;;;;;5014157;28;20133;-35
2023/04/05 11:40:35;;;;;;;1.73;0.82;;;17.80;1.00;;;;;;5013940;28;20069;-35
2023/04/05 11:43:09;;;;;;;3.80;0.77;;;17.80;1.00;;;;;;5013016;28;20493;-36
2023/04/05 11:45:38;;;;;;;1.45;0.95;;;17.80;1.00;;;;;;5014017;28;20045;-35
2023/04/05 11:48:05;;;;;;;2.40;1.02;;;17.80;1.00;;;;;;5013604;28;20050;-35
2023/04/05 11:50:33;;;;;;;1.55;0.73;;;17.80;1.00;;;;;;5013623;28;20041;-36
2023/04/05 11:53:11;;;;;;;2.33;0.95;;;17.80;1.00;;;;;;5012992;28;20508;-35
2023/04/05 11:55:39;;;;;;;1.27;0.68;;;17.80;1.00;;;;;;5013536;28;20430;-35
2023/04/05 11:58:14;;;;;;;1.85;1.00;;;17.80;1.00;;;;;;5013530;28;20073;-35
2023/04/05 12:00:42;;;;;;;3.42;0.70;;;17.80;1.00;;;;;;5013332;28;20060;-35
2023/04/05 12:03:15;;;;;;;1.55;1.02;;;17.70;1.00;;;;;;5012916;28;20037;-36
2023/04/05 12:05:52;;;;;;;2.55;0.93;;;17.70;1.00;;;;;;5013400;28;20042;-35
2023/04/05 12:08:20;;;;;;;2.08;0.68;;;17.70;1.00;;;;;;5013287;28;20041;-35
2023/04/05 12:10:54;;;;;;;1.77;0.98;;;17.70;1.00;;;;;;5013181;28;20121;-35
2023/04/05 12:13:29;;;;;;;3.47;1.05;;;17.70;1.00;;;;;;5012840;28;20049;-35
2023/04/05 12:16:00;;;;;;;2.50;0.80;;;17.70;1.00;;;;;;5013353;28;20042;-36
2023/04/05 12:18:30;;;;;;;2.38;1.10;;;17.70;1.00;;;;;;5013343;28;20057;-36
2023/04/05 12:20:57;;;;;;;3.38;0.90;;;17.70;1.00;;;;;;5013300;28;20072;-36
2023/04/05 12:23:25;;;;;;;3.35;1.25;;;17.70;1.00;;;;;;5012356;28;20065;-35
2023/04/05 12:25:54;;;;;;;3.17;1.30;;;17.70;1.00;;;;;;5012455;28;20056;-36
2023/04/05 12:28:21;;;;;;;2.78;1.10;;;17.70;1.00;;;;;;5013400;28;20046;-35
2023/04/05 12:30:52;;;;;;;2.60;0.98;;;17.70;1.00;;;;;;5012979;28;20046;-36
2023/04/05 12:33:32;;;;;;;1.30;0.88;;;17.70;1.00;;;;;;5012257;28;20078;-33
2023/04/05 12:36:04;;;;;;;2.20;0.90;;;17.70;1.00;;;;;;4995284;28;20497;-33
2023/04/05 12:38:31;;;;;;;1.73;0.90;;;17.70;1.00;;;;;;5013380;28;20049;-36
2023/04/05 12:41:01;;;;;;;2.20;1.00;;;17.70;1.00;;;;;;5012959;28;20080;-35
2023/04/05 12:43:41;;;;;;;1.17;0.60;;;17.60;1.00;;;;;;5011844;28;20461;-36
2023/04/05 12:46:10;;;;;;;3.70;1.25;;;17.60;1.00;;;;;;5012826;28;20046;-35
2023/04/05 12:48:38;;;;;;;1.95;0.82;;;17.60;1.00;;;;;;5012706;28;20092;-36
2023/04/05 12:51:14;;;;;;;2.53;1.30;;;17.60;1.00;;;;;;5012672;28;20100;-35
2023/04/05 12:53:48;;;;;;;2.10;1.00;;;17.60;1.00;;;;;;5011755;28;20464;-35
2023/04/05 12:56:15;;;;;;;3.55;1.35;;;17.60;1.00;;;;;;5012601;28;20116;-35
2023/04/05 12:58:42;;;;;;;1.95;0.80;;;17.60;1.00;;;;;;5012737;28;20513;-35
2023/04/05 13:01:09;;;;;;;2.50;0.82;;;17.60;1.00;;;;;;5012436;28;20042;-35
2023/04/05 13:03:36;;;;;;;1.90;0.98;;;17.60;1.00;;;;;;5011650;28;20038;-35
2023/04/05 13:06:03;;;;;;;2.90;1.13;;;17.60;1.00;;;;;;5012387;28;20386;-35
2023/04/05 13:08:30;;;;;;;2.83;1.60;;;17.60;1.00;;;;;;5012147;28;20093;-35
2023/04/05 13:10:57;;;;;;;1.25;0.80;;;17.60;1.00;;;;;;5012392;28;20042;-35
2023/04/05 13:13:24;;;;;;;1.63;0.80;;;17.60;1.00;;;;;;5011684;28;20133;-35
2023/04/05 13:15:51;;;;;;;2.80;1.15;;;17.60;1.00;;;;;;5012273;28;20084;-35
2023/04/05 13:18:18;;;;;;;2.58;1.08;;;17.60;1.00;;;;;;5012238;28;20124;-34